M I D A S
Marine Information and Data Acquisition System
Tripno 886 of the Zeeleeuw from 2005-04-28 06:45:36 to 2005-04-28 15:38:20
Back to CruiseResearch ActivitiesStationsMapUnderway DataData graphs

EquipmentUnitsComments
TimeDGPSUTC
LatitudeDGPSDM.mWGS84
LongitudeDGPSDM.mWGS84
SpeedMeteo Stationm/sRelative wind speed
DirectionMeteo StationdegRelative wind direction
TemperatureMeteo Stationdeg CelciusAir temperature
PressureMeteo StationPaAtmospheric pressure
HumidityMeteo Station%Relative humidity
Missing or incorrect values are displayed as -999
Metereological data collected by the RV Zeeleeuw from 2005-04-28 06:44:08 to 2005-04-28 15:48:48
                                                                                    Next 1000 lines
Time Latitude Longitude Speed Direction Temperature Pressure Humidity
2005-04-28 06:44:18 51°13.597 2°56.108 2.7 32 10.5 101900 82
2005-04-28 06:44:23 51°13.598 2°56.108 3.1 22 10.6 101900 82
2005-04-28 06:44:28 51°13.598 2°56.108 3.3 14 10.6 101900 82
2005-04-28 06:44:33 51°13.598 2°56.108 3.4 25 10.6 101900 82
2005-04-28 06:44:38 51°13.598 2°56.108 3.2 31 10.6 101900 82
2005-04-28 06:44:43 51°13.598 2°56.108 3.1 28 10.6 101910 82
2005-04-28 06:44:48 51°13.598 2°56.108 2.6 23 10.6 101910 82
2005-04-28 06:44:53 51°13.598 2°56.108 2.8 26 10.5 101900 82
2005-04-28 06:44:58 51°13.598 2°56.108 2.5 25 10.5 101900 82
2005-04-28 06:45:03 51°13.598 2°56.108 2.1 25 10.6 101900 82
2005-04-28 06:45:08 51°13.598 2°56.109 2.8 30 10.6 101900 82
2005-04-28 06:45:13 51°13.597 2°56.108 2.8 26 10.6 101900 82
2005-04-28 06:45:18 51°13.597 2°56.108 2.7 48 10.6 101900 82
2005-04-28 06:45:23 51°13.597 2°56.108 2.8 42 10.6 101900 82
2005-04-28 06:45:28 51°13.597 2°56.108 2.5 42 10.6 101900 82
2005-04-28 06:45:33 51°13.596 2°56.108 2.3 39 10.6 101900 82
2005-04-28 06:45:38 51°13.596 2°56.108 2.4 53 10.6 101900 82
2005-04-28 06:45:42 51°13.596 2°56.108 2.1 53 10.6 101900 82
2005-04-28 06:45:48 51°13.596 2°56.108 2.1 47 10.6 101900 82
2005-04-28 06:45:53 51°13.596 2°56.108 2.2 35 10.6 101900 82
2005-04-28 06:45:58 51°13.596 2°56.108 1.9 37 10.6 101900 82
2005-04-28 06:46:03 51°13.596 2°56.107 2.1 38 10.6 101910 82
2005-04-28 06:46:08 51°13.596 2°56.106 1.8 51 10.6 101910 82
2005-04-28 06:46:13 51°13.597 2°56.104 1.9 51 10.6 101900 82
2005-04-28 06:46:18 51°13.597 2°56.102 1.9 47 10.6 101900 82
2005-04-28 06:46:23 51°13.598 2°56.099 2.2 47 10.6 101910 82
2005-04-28 06:46:28 51°13.598 2°56.096 1.9 46 10.6 101910 82
2005-04-28 06:46:33 51°13.599 2°56.093 1.7 54 10.6 101910 82
2005-04-28 06:46:38 51°13.6 2°56.088 1.4 68 10.6 101910 82
2005-04-28 06:46:44 51°13.601 2°56.084 1.4 67 10.6 101910 82
2005-04-28 06:46:48 51°13.602 2°56.079 1.7 71 10.6 101910 82
2005-04-28 06:46:54 51°13.604 2°56.074 1.6 76 10.6 101910 82
2005-04-28 06:46:58 51°13.605 2°56.069 1.1 78 10.6 101910 82
2005-04-28 06:47:04 51°13.607 2°56.063 0.8 78 10.6 101910 82
2005-04-28 06:47:08 51°13.608 2°56.058 0.8 72 10.6 101910 82
2005-04-28 06:47:14 51°13.61 2°56.052 0.9 69 10.6 101910 82
2005-04-28 06:47:18 51°13.611 2°56.047 1 74 10.6 101910 82
2005-04-28 06:47:24 51°13.613 2°56.039 1.4 79 10.6 101910 82
2005-04-28 06:47:29 51°13.615 2°56.033 1.4 69 10.6 101910 82
2005-04-28 06:47:34 51°13.617 2°56.027 1.5 76 10.6 101910 82
2005-04-28 06:47:38 51°13.619 2°56.021 0.9 84 10.6 101910 82
2005-04-28 06:47:44 51°13.621 2°56.013 0.8 91 10.6 101910 82
2005-04-28 06:47:48 51°13.623 2°56.007 0.4 117 10.6 101910 82
2005-04-28 06:47:54 51°13.625 2°55.999 0.3 134 10.6 101910 82
2005-04-28 06:47:59 51°13.627 2°55.991 1 140 10.6 101910 82
2005-04-28 06:48:03 51°13.63 2°55.984 0.9 153 10.6 101910 82
2005-04-28 06:48:09 51°13.632 2°55.974 1.1 159 10.6 101910 82
2005-04-28 06:48:14 51°13.635 2°55.966 1 163 10.6 101910 82
2005-04-28 06:48:18 51°13.638 2°55.958 1.8 139 10.6 101910 82
2005-04-28 06:48:24 51°13.641 2°55.949 2.1 133 10.6 101910 82
2005-04-28 06:48:28 51°13.643 2°55.94 1.8 129 10.6 101910 82
2005-04-28 06:48:34 51°13.647 2°55.931 1.5 129 10.6 101910 82
2005-04-28 06:48:39 51°13.65 2°55.921 0.8 130 10.6 101910 82
2005-04-28 06:48:43 51°13.654 2°55.914 0.6 125 10.6 101910 82
2005-04-28 06:48:49 51°13.658 2°55.904 2 106 10.6 101910 82
2005-04-28 06:48:54 51°13.661 2°55.895 1.8 107 10.7 101910 82
2005-04-28 06:48:58 51°13.664 2°55.887 1.6 73 10.7 101910 82
2005-04-28 06:49:04 51°13.669 2°55.876 1.2 101 10.7 101910 82
2005-04-28 06:49:08 51°13.672 2°55.868 1.5 81 10.7 101910 82
2005-04-28 06:49:14 51°13.677 2°55.858 1.6 86 10.7 101910 82
2005-04-28 06:49:18 51°13.68 2°55.851 0.9 53 10.7 101910 82
2005-04-28 06:49:24 51°13.684 2°55.84 0.8 58 10.7 101910 82
2005-04-28 06:49:29 51°13.688 2°55.832 1 84 10.7 101910 82
2005-04-28 06:49:34 51°13.692 2°55.823 1 85 10.7 101900 82
2005-04-28 06:49:39 51°13.695 2°55.815 2.2 155 10.7 101900 82
2005-04-28 06:49:44 51°13.699 2°55.806 1.9 155 10.7 101900 82
2005-04-28 06:49:49 51°13.703 2°55.797 2.1 139 10.7 101900 82
2005-04-28 06:49:54 51°13.706 2°55.789 2.1 135 10.7 101900 82
2005-04-28 06:49:58 51°13.709 2°55.782 1.7 126 10.7 101900 82
2005-04-28 06:50:04 51°13.714 2°55.771 1.8 125 10.7 101910 82
2005-04-28 06:50:09 51°13.716 2°55.764 1.7 123 10.7 101910 82
2005-04-28 06:50:14 51°13.719 2°55.755 1.6 123 10.7 101900 82
2005-04-28 06:50:18 51°13.722 2°55.749 1.3 128 10.7 101900 82
2005-04-28 06:50:24 51°13.724 2°55.742 1.6 129 10.7 101910 82
2005-04-28 06:50:29 51°13.725 2°55.738 1.4 80 10.7 101910 82
2005-04-28 06:50:33 51°13.726 2°55.735 1.5 65 10.7 101910 82
2005-04-28 06:50:38 51°13.728 2°55.734 2.4 63 10.7 101910 82
2005-04-28 06:50:43 51°13.728 2°55.734 2.2 61 10.7 101910 82
2005-04-28 06:50:48 51°13.729 2°55.736 3.5 64 10.7 101910 82
2005-04-28 06:50:53 51°13.73 2°55.738 3.2 82 10.7 101900 82
2005-04-28 06:50:58 51°13.731 2°55.739 2.8 88 10.7 101900 82
2005-04-28 06:51:03 51°13.731 2°55.739 2.8 90 10.7 101900 82
2005-04-28 06:51:08 51°13.732 2°55.738 2.5 99 10.7 101900 82
2005-04-28 06:51:13 51°13.732 2°55.737 2.2 95 10.7 101900 82
2005-04-28 06:51:18 51°13.731 2°55.734 2.5 121 10.7 101900 82
2005-04-28 06:51:22 51°13.731 2°55.732 2.6 123 10.7 101900 82
2005-04-28 06:51:28 51°13.73 2°55.728 2.8 135 10.7 101900 82
2005-04-28 06:51:33 51°13.729 2°55.724 2.9 135 10.8 101910 82
2005-04-28 06:51:38 51°13.729 2°55.721 2.6 129 10.8 101910 82
2005-04-28 06:51:44 51°13.728 2°55.718 2.5 128 10.7 101910 82
2005-04-28 06:51:49 51°13.727 2°55.714 2.5 134 10.7 101910 82
2005-04-28 06:51:54 51°13.726 2°55.711 2.7 135 10.8 101910 82
2005-04-28 06:51:58 51°13.726 2°55.709 2.3 148 10.8 101910 82
2005-04-28 06:52:04 51°13.726 2°55.708 1.9 138 10.8 101910 82
2005-04-28 06:52:09 51°13.726 2°55.708 1.8 129 10.8 101910 82
2005-04-28 06:52:14 51°13.728 2°55.708 1.8 129 10.8 101900 82
2005-04-28 06:52:18 51°13.729 2°55.709 2 127 10.8 101900 82
2005-04-28 06:52:24 51°13.732 2°55.709 1.6 125 10.8 101910 82
2005-04-28 06:52:29 51°13.735 2°55.709 1.6 131 10.8 101910 82
2005-04-28 06:52:34 51°13.739 2°55.709 1.4 131 10.8 101910 82
2005-04-28 06:52:39 51°13.744 2°55.707 1.2 132 10.8 101910 82
2005-04-28 06:52:44 51°13.748 2°55.706 1 133 10.8 101910 82
2005-04-28 06:52:49 51°13.752 2°55.703 0.9 135 10.8 101910 82
2005-04-28 06:52:52 51°13.755 2°55.701 1.1 155 10.8 101910 82
2005-04-28 06:52:58 51°13.759 2°55.697 1 167 10.8 101910 82
2005-04-28 06:53:04 51°13.764 2°55.693 1.3 168 10.8 101910 82
2005-04-28 06:53:08 51°13.768 2°55.69 0.8 186 10.8 101910 82
2005-04-28 06:53:14 51°13.774 2°55.686 0.8 182 10.8 101910 82
2005-04-28 06:53:19 51°13.78 2°55.682 1.8 137 10.8 101910 82
2005-04-28 06:53:23 51°13.785 2°55.678 2.1 136 10.8 101910 82
2005-04-28 06:53:28 51°13.791 2°55.673 1.7 138 10.8 101910 82
2005-04-28 06:53:33 51°13.797 2°55.668 1.7 144 10.8 101910 82
2005-04-28 06:53:38 51°13.805 2°55.662 0.9 139 10.8 101910 82
2005-04-28 06:53:43 51°13.813 2°55.656 1.1 145 10.8 101910 82
2005-04-28 06:53:48 51°13.82 2°55.65 0.4 143 10.8 101910 82
2005-04-28 06:53:53 51°13.828 2°55.644 0.5 143 10.8 101910 82
2005-04-28 06:53:58 51°13.835 2°55.639 0.2 137 10.8 101910 82
2005-04-28 06:54:03 51°13.845 2°55.632 0.2 136 10.8 101910 82
2005-04-28 06:54:08 51°13.853 2°55.626 0.7 73 10.8 101910 82
2005-04-28 06:54:13 51°13.861 2°55.619 0.7 73 10.8 101910 82
2005-04-28 06:54:18 51°13.87 2°55.612 0.6 72 10.8 101910 82
2005-04-28 06:54:24 51°13.881 2°55.604 0.5 72 10.8 101900 82
2005-04-28 06:54:28 51°13.889 2°55.598 1 68 10.8 101900 82
2005-04-28 06:54:33 51°13.898 2°55.592 1.3 66 10.8 101910 82
2005-04-28 06:54:38 51°13.908 2°55.584 0.9 50 10.8 101910 82
2005-04-28 06:54:43 51°13.918 2°55.577 1.4 27 10.8 101910 82
2005-04-28 06:54:48 51°13.928 2°55.569 2 6 10.8 101910 82
2005-04-28 06:54:52 51°13.936 2°55.563 2.4 10 10.8 101910 81
2005-04-28 06:54:58 51°13.947 2°55.554 2.4 11 10.8 101910 81
2005-04-28 06:55:02 51°13.955 2°55.548 2.3 6 10.9 101910 81
2005-04-28 06:55:08 51°13.967 2°55.539 1.7 3 10.9 101910 81
2005-04-28 06:55:13 51°13.978 2°55.531 1.7 16 10.9 101910 81
2005-04-28 06:55:18 51°13.987 2°55.524 1.4 16 10.9 101910 81
2005-04-28 06:55:23 51°13.998 2°55.516 1.5 17 10.9 101910 81
2005-04-28 06:55:28 51°14.008 2°55.509 1.3 354 10.9 101910 81
2005-04-28 06:55:33 51°14.019 2°55.501 1.3 353 10.9 101910 81
2005-04-28 06:55:38 51°14.028 2°55.494 1.2 351 10.9 101910 81
2005-04-28 06:55:43 51°14.039 2°55.486 1.1 347 10.9 101910 81
2005-04-28 06:55:48 51°14.048 2°55.479 0.7 7 10.9 101910 81
2005-04-28 06:55:54 51°14.06 2°55.47 1.1 10 10.9 101910 81
2005-04-28 06:55:58 51°14.069 2°55.464 1.2 11 10.9 101910 81
2005-04-28 06:56:03 51°14.081 2°55.455 1.2 22 10.9 101910 81
2005-04-28 06:56:08 51°14.092 2°55.446 1.3 10 10.9 101910 81
2005-04-28 06:56:13 51°14.103 2°55.438 1.3 5 10.9 101910 81
2005-04-28 06:56:18 51°14.116 2°55.428 1.4 4 10.9 101910 81
2005-04-28 06:56:23 51°14.128 2°55.418 1.3 4 10.9 101910 81
2005-04-28 06:56:28 51°14.141 2°55.408 1.6 4 10.9 101910 81
2005-04-28 06:56:33 51°14.153 2°55.397 1.9 2 10.9 101910 81
2005-04-28 06:56:38 51°14.165 2°55.387 2.1 7 10.9 101910 81
2005-04-28 06:56:43 51°14.178 2°55.373 2.7 4 10.9 101910 81
2005-04-28 06:56:48 51°14.19 2°55.361 2.2 358 10.9 101910 81
2005-04-28 06:56:53 51°14.202 2°55.348 2.6 355 10.9 101910 81
2005-04-28 06:56:58 51°14.213 2°55.335 2.6 -999 10.9 101910 81
2005-04-28 06:57:03 51°14.226 2°55.319 3.1 352 10.9 101900 81
2005-04-28 06:57:08 51°14.237 2°55.304 2.3 1 10.9 101900 81
2005-04-28 06:57:13 51°14.249 2°55.287 2.4 350 10.9 101910 81
2005-04-28 06:57:18 51°14.258 2°55.273 2.7 342 10.9 101910 81
2005-04-28 06:57:23 51°14.269 2°55.256 2.8 345 10.9 101910 81
2005-04-28 06:57:28 51°14.28 2°55.236 3.7 329 10.9 101910 81
2005-04-28 06:57:33 51°14.29 2°55.218 3.1 323 10.9 101910 81
2005-04-28 06:57:38 51°14.299 2°55.2 2.8 318 10.9 101910 81
2005-04-28 06:57:43 51°14.31 2°55.178 3 327 10.9 101910 81
2005-04-28 06:57:48 51°14.319 2°55.158 4 341 10.9 101910 81
2005-04-28 06:57:53 51°14.328 2°55.136 3.2 335 10.9 101910 81
2005-04-28 06:57:58 51°14.336 2°55.117 3.2 327 10.9 101910 81
2005-04-28 06:58:03 51°14.346 2°55.093 3.7 328 10.9 101910 81
2005-04-28 06:58:08 51°14.355 2°55.071 4 328 10.9 101910 81
2005-04-28 06:58:12 51°14.361 2°55.052 4.1 326 10.9 101910 81
2005-04-28 06:58:18 51°14.372 2°55.026 3 349 10.9 101910 81
2005-04-28 06:58:23 51°14.382 2°55.004 3.9 328 10.9 101910 81
2005-04-28 06:58:28 51°14.394 2°54.984 4.5 339 10.9 101910 81
2005-04-28 06:58:33 51°14.406 2°54.964 4.3 325 10.9 101910 81
2005-04-28 06:58:38 51°14.418 2°54.947 3 332 10.9 101910 81
2005-04-28 06:58:42 51°14.43 2°54.93 2.9 339 11 101900 81
2005-04-28 06:58:48 51°14.447 2°54.91 3.2 351 11 101900 81
2005-04-28 06:58:53 51°14.462 2°54.893 3.7 351 11 101910 80
2005-04-28 06:58:58 51°14.478 2°54.876 3 330 11 101910 80
2005-04-28 06:59:03 51°14.492 2°54.859 2.6 339 11 101910 80
2005-04-28 06:59:08 51°14.508 2°54.841 3.8 355 11 101910 80
2005-04-28 06:59:13 51°14.523 2°54.825 3.2 354 11 101910 80
2005-04-28 06:59:18 51°14.538 2°54.811 2.5 350 11 101910 80
2005-04-28 06:59:22 51°14.553 2°54.799 2.5 340 11 101900 80
2005-04-28 06:59:28 51°14.572 2°54.784 2.6 14 11 101900 80
2005-04-28 06:59:33 51°14.589 2°54.774 3 19 11 101900 80
2005-04-28 06:59:38 51°14.605 2°54.765 2.6 39 11 101900 80
2005-04-28 06:59:43 51°14.624 2°54.755 2.7 34 11 101910 80
2005-04-28 06:59:48 51°14.641 2°54.747 2.7 37 11 101910 80
2005-04-28 06:59:53 51°14.659 2°54.738 2.5 44 11 101910 80
2005-04-28 06:59:58 51°14.674 2°54.731 2.5 35 11 101910 80
2005-04-28 07:00:03 51°14.694 2°54.723 2.5 30 11 101910 80
2005-04-28 07:00:08 51°14.712 2°54.716 2.2 37 11 101910 80
2005-04-28 07:00:13 51°14.728 2°54.71 2.2 42 11 101910 80
2005-04-28 07:00:18 51°14.746 2°54.704 2.2 56 11 101910 80
2005-04-28 07:00:23 51°14.764 2°54.698 1.7 68 11 101910 80
2005-04-28 07:00:28 51°14.784 2°54.691 2.4 82 11 101910 80
2005-04-28 07:00:33 51°14.802 2°54.685 2.1 81 11 101900 80
2005-04-28 07:00:38 51°14.82 2°54.679 1.8 74 11 101900 80
2005-04-28 07:00:43 51°14.836 2°54.674 1.6 92 11.1 101910 80
2005-04-28 07:00:48 51°14.855 2°54.669 2.3 70 11.1 101910 80
2005-04-28 07:00:53 51°14.874 2°54.665 2.4 76 11.1 101900 80
2005-04-28 07:00:58 51°14.892 2°54.661 2.5 79 11.1 101900 80
2005-04-28 07:01:03 51°14.91 2°54.657 2.4 82 11.1 101900 79
2005-04-28 07:01:08 51°14.928 2°54.654 2.9 82 11.1 101900 79
2005-04-28 07:01:13 51°14.946 2°54.649 2.9 87 11.1 101900 79
2005-04-28 07:01:18 51°14.964 2°54.645 2.5 84 11.1 101900 79
2005-04-28 07:01:24 51°14.984 2°54.64 2.2 77 11.1 101900 79
2005-04-28 07:01:28 51°15 2°54.636 1.8 87 11.1 101900 79
2005-04-28 07:01:33 51°15.018 2°54.63 1.8 83 11.1 101900 79
2005-04-28 07:01:38 51°15.034 2°54.624 1.5 80 11.1 101900 79
2005-04-28 07:01:43 51°15.054 2°54.617 1.9 75 11.1 101900 79
2005-04-28 07:01:48 51°15.071 2°54.611 1.8 90 11.1 101900 79
2005-04-28 07:01:53 51°15.088 2°54.604 1.7 89 11.1 101900 79
2005-04-28 07:01:58 51°15.104 2°54.598 1.9 68 11.1 101900 79
2005-04-28 07:02:03 51°15.123 2°54.591 1.6 69 11.1 101900 79
2005-04-28 07:02:08 51°15.141 2°54.584 1.5 56 11.1 101900 79
2005-04-28 07:02:13 51°15.158 2°54.576 1.8 58 11.1 101900 79
2005-04-28 07:02:18 51°15.176 2°54.57 1.8 54 11.1 101900 79
2005-04-28 07:02:23 51°15.193 2°54.563 1.8 60 11.1 101900 79
2005-04-28 07:02:28 51°15.211 2°54.557 2.3 55 11.1 101900 79
2005-04-28 07:02:33 51°15.229 2°54.551 2.2 53 11.1 101900 79
2005-04-28 07:02:38 51°15.247 2°54.545 2.2 76 11.1 101900 79
2005-04-28 07:02:43 51°15.265 2°54.541 2.5 78 11.1 101900 79
2005-04-28 07:02:48 51°15.282 2°54.538 2.5 85 11.1 101900 79
2005-04-28 07:02:52 51°15.298 2°54.534 2.3 76 11.1 101900 79
2005-04-28 07:02:58 51°15.32 2°54.529 2.4 69 11.1 101900 79
2005-04-28 07:03:03 51°15.338 2°54.524 2.4 59 11.1 101900 79
2005-04-28 07:03:08 51°15.356 2°54.518 1.6 57 11.1 101900 79
2005-04-28 07:03:13 51°15.374 2°54.51 1.8 57 11.1 101900 79
2005-04-28 07:03:18 51°15.39 2°54.502 1.5 40 11.1 101900 79
2005-04-28 07:03:23 51°15.409 2°54.491 1.3 41 11.1 101900 79
2005-04-28 07:03:28 51°15.427 2°54.48 1.1 38 11.1 101900 79
2005-04-28 07:03:33 51°15.444 2°54.47 1.2 41 11.1 101900 79
2005-04-28 07:03:38 51°15.462 2°54.459 1.6 36 11.1 101900 79
2005-04-28 07:03:43 51°15.478 2°54.45 1.5 35 11.1 101900 80
2005-04-28 07:03:48 51°15.497 2°54.439 1.6 47 11.1 101900 80
2005-04-28 07:03:53 51°15.515 2°54.43 1.8 48 11.1 101900 79
2005-04-28 07:03:58 51°15.532 2°54.423 1.8 62 11.1 101900 79
2005-04-28 07:04:03 51°15.55 2°54.415 1.6 57 11.1 101900 79
2005-04-28 07:04:08 51°15.57 2°54.407 1.6 71 11.1 101900 79
2005-04-28 07:04:13 51°15.588 2°54.399 1.4 71 11.1 101900 79
2005-04-28 07:04:18 51°15.605 2°54.392 1.9 49 11.1 101900 79
2005-04-28 07:04:23 51°15.625 2°54.382 2 42 11.1 101890 80
2005-04-28 07:04:28 51°15.643 2°54.373 2 39 11.1 101890 80
2005-04-28 07:04:32 51°15.657 2°54.365 1.9 28 11 101890 79
2005-04-28 07:04:38 51°15.677 2°54.354 1.5 21 11 101890 79
2005-04-28 07:04:43 51°15.697 2°54.342 1 22 11 101900 79
2005-04-28 07:04:48 51°15.715 2°54.332 1.3 30 11 101900 79
2005-04-28 07:04:54 51°15.735 2°54.321 1.4 28 11.1 101890 79
2005-04-28 07:04:58 51°15.75 2°54.314 1.1 41 11.1 101890 79
2005-04-28 07:05:03 51°15.77 2°54.303 1.1 43 11 101900 80
2005-04-28 07:05:08 51°15.788 2°54.294 0.8 51 11 101900 80
2005-04-28 07:05:13 51°15.806 2°54.285 0.7 53 11.1 101900 80
2005-04-28 07:05:18 51°15.824 2°54.276 0.9 46 11.1 101900 80
2005-04-28 07:05:23 51°15.842 2°54.267 0.9 44 11 101900 80
2005-04-28 07:05:28 51°15.86 2°54.258 1 61 11 101900 80
2005-04-28 07:05:33 51°15.877 2°54.248 0.9 39 11 101890 80
2005-04-28 07:05:38 51°15.893 2°54.24 0.8 50 11 101890 80
2005-04-28 07:05:43 51°15.911 2°54.23 0.9 81 11 101890 80
2005-04-28 07:05:48 51°15.927 2°54.221 0.5 84 11 101890 80
2005-04-28 07:05:53 51°15.942 2°54.213 0.8 100 11 101890 80
2005-04-28 07:05:58 51°15.956 2°54.206 1.3 130 11 101890 80
2005-04-28 07:06:03 51°15.969 2°54.199 1.2 130 11 101900 80
2005-04-28 07:06:09 51°15.984 2°54.194 2 128 11 101900 80
2005-04-28 07:06:13 51°15.995 2°54.191 2.2 128 11 101890 80
2005-04-28 07:06:18 51°16.007 2°54.188 2.7 131 11 101890 80
2005-04-28 07:06:23 51°16.019 2°54.187 2.7 130 11.1 101890 80
2005-04-28 07:06:28 51°16.03 2°54.187 3.4 128 11.1 101890 80
2005-04-28 07:06:33 51°16.039 2°54.188 3.9 123 11.1 101890 80
2005-04-28 07:06:38 51°16.049 2°54.189 4.2 117 11.1 101890 80
2005-04-28 07:06:43 51°16.06 2°54.192 4.3 115 11 101890 80
2005-04-28 07:06:48 51°16.069 2°54.195 4.4 116 11 101890 80
2005-04-28 07:06:53 51°16.078 2°54.198 3.6 115 11.1 101890 80
2005-04-28 07:06:58 51°16.086 2°54.202 4.6 113 11.1 101890 80
2005-04-28 07:07:03 51°16.095 2°54.206 4.7 112 11.1 101890 80
2005-04-28 07:07:08 51°16.103 2°54.21 3.9 110 11.1 101890 80
2005-04-28 07:07:13 51°16.112 2°54.214 4.1 121 11.1 101890 80
2005-04-28 07:07:18 51°16.12 2°54.218 4.5 119 11.1 101890 80
2005-04-28 07:07:23 51°16.128 2°54.222 4.9 126 11.1 101880 81
2005-04-28 07:07:28 51°16.136 2°54.225 5 123 11.1 101880 81
2005-04-28 07:07:32 51°16.143 2°54.228 5 126 11.1 101880 81
2005-04-28 07:07:38 51°16.152 2°54.232 4 127 11.1 101880 81
2005-04-28 07:07:43 51°16.16 2°54.235 4.5 118 11.1 101880 81
2005-04-28 07:07:48 51°16.167 2°54.239 4.9 123 11.1 101880 81
2005-04-28 07:07:52 51°16.174 2°54.241 4.5 116 11 101890 80
2005-04-28 07:07:58 51°16.183 2°54.245 5.3 119 11 101890 80
2005-04-28 07:08:03 51°16.191 2°54.248 5.4 124 11.1 101890 80
2005-04-28 07:08:08 51°16.198 2°54.252 5.6 115 11.1 101890 80
2005-04-28 07:08:13 51°16.204 2°54.255 5.1 117 11.1 101890 80
2005-04-28 07:08:18 51°16.211 2°54.258 5.4 119 11.1 101890 80
2005-04-28 07:08:24 51°16.218 2°54.262 5.4 117 11.1 101890 80
2005-04-28 07:08:28 51°16.223 2°54.266 5.5 117 11.1 101890 80
2005-04-28 07:08:33 51°16.228 2°54.269 6 118 11.1 101890 80
2005-04-28 07:08:38 51°16.232 2°54.272 7.1 121 11.1 101890 80
2005-04-28 07:08:43 51°16.236 2°54.276 6.1 118 11.1 101890 80
2005-04-28 07:08:48 51°16.239 2°54.278 6.2 111 11.1 101890 80
2005-04-28 07:08:53 51°16.241 2°54.279 6.3 110 11.1 101890 80
2005-04-28 07:08:58 51°16.242 2°54.279 6.7 115 11.1 101890 80
2005-04-28 07:09:03 51°16.242 2°54.278 6.2 109 11 101880 80
2005-04-28 07:09:08 51°16.242 2°54.276 5.5 111 11 101880 80
2005-04-28 07:09:12 51°16.242 2°54.276 5.5 108 11.1 101880 80
2005-04-28 07:09:18 51°16.243 2°54.274 5.7 112 11.1 101880 80
2005-04-28 07:09:22 51°16.243 2°54.272 6.3 110 11.1 101880 80
2005-04-28 07:09:28 51°16.243 2°54.271 6 97 11.1 101880 80
2005-04-28 07:09:32 51°16.243 2°54.269 5.6 106 11 101880 80
2005-04-28 07:09:38 51°16.243 2°54.268 5.7 109 11 101880 80
2005-04-28 07:09:43 51°16.244 2°54.266 5.7 107 11.1 101880 81
2005-04-28 07:09:48 51°16.244 2°54.264 6.6 99 11.1 101880 81
2005-04-28 07:09:53 51°16.244 2°54.263 5.8 108 11.1 101880 81
2005-04-28 07:09:58 51°16.244 2°54.261 6.5 105 11.1 101880 81
2005-04-28 07:10:03 51°16.244 2°54.26 6.2 104 11.1 101880 81
2005-04-28 07:10:08 51°16.244 2°54.258 6.4 105 11.1 101880 81
2005-04-28 07:10:13 51°16.244 2°54.256 6.1 108 11 101880 81
2005-04-28 07:10:18 51°16.244 2°54.255 6.9 106 11 101880 81
2005-04-28 07:10:22 51°16.245 2°54.254 6.3 107 11 101880 81
2005-04-28 07:10:28 51°16.245 2°54.252 6.8 97 11 101880 81
2005-04-28 07:10:33 51°16.245 2°54.25 6.1 101 11 101880 81
2005-04-28 07:10:38 51°16.245 2°54.248 7.2 108 11 101880 81
2005-04-28 07:10:43 51°16.245 2°54.247 6.2 102 11 101880 81
2005-04-28 07:10:48 51°16.245 2°54.245 5.6 99 11 101880 81
2005-04-28 07:10:53 51°16.245 2°54.244 6.2 97 11 101880 81
2005-04-28 07:10:58 51°16.245 2°54.242 6.6 109 11 101880 81
2005-04-28 07:11:03 51°16.246 2°54.241 6.1 103 11 101880 81
2005-04-28 07:11:08 51°16.246 2°54.239 5.9 104 11 101880 81
2005-04-28 07:11:13 51°16.246 2°54.237 5.5 107 11 101880 81
2005-04-28 07:11:18 51°16.246 2°54.236 6.7 97 11 101880 81
2005-04-28 07:11:22 51°16.246 2°54.234 6.7 105 11 101880 81
2005-04-28 07:11:28 51°16.246 2°54.232 7.2 99 11 101880 81
2005-04-28 07:11:33 51°16.246 2°54.231 7.1 103 11 101880 81
2005-04-28 07:11:38 51°16.246 2°54.229 6.3 97 11 101880 81
2005-04-28 07:11:43 51°16.247 2°54.227 6.4 100 11 101880 81
2005-04-28 07:11:48 51°16.247 2°54.226 6.3 94 11 101880 81
2005-04-28 07:11:53 51°16.247 2°54.224 6.3 95 11 101880 81
2005-04-28 07:11:59 51°16.247 2°54.222 6 101 11 101880 81
2005-04-28 07:12:03 51°16.247 2°54.221 6.4 102 11 101880 81
2005-04-28 07:12:08 51°16.247 2°54.22 7 99 11 101880 81
2005-04-28 07:12:12 51°16.247 2°54.219 6.9 102 11 101880 81
2005-04-28 07:12:18 51°16.247 2°54.217 6.7 97 11 101880 81
2005-04-28 07:12:23 51°16.248 2°54.215 7 93 11 101880 81
2005-04-28 07:12:28 51°16.248 2°54.213 6.6 101 11 101880 81
2005-04-28 07:12:33 51°16.248 2°54.212 6.8 102 11 101880 81
2005-04-28 07:12:38 51°16.248 2°54.21 6.8 101 11 101880 81
2005-04-28 07:12:43 51°16.248 2°54.209 7.1 99 11 101870 81
2005-04-28 07:12:48 51°16.249 2°54.207 6.6 98 11 101870 81
2005-04-28 07:12:53 51°16.249 2°54.206 6.9 100 11 101870 81
2005-04-28 07:12:58 51°16.249 2°54.204 6.8 95 11 101870 81
2005-04-28 07:13:02 51°16.249 2°54.203 6.5 96 11 101870 81
2005-04-28 07:13:08 51°16.249 2°54.201 7.2 100 11 101870 81
2005-04-28 07:13:13 51°16.249 2°54.199 7.2 102 11 101870 81
2005-04-28 07:13:18 51°16.25 2°54.198 7 102 11 101870 81
2005-04-28 07:13:23 51°16.25 2°54.196 6.8 103 11 101880 81
2005-04-28 07:13:28 51°16.25 2°54.194 6.5 94 11 101880 81
2005-04-28 07:13:33 51°16.25 2°54.193 6.2 94 11 101870 81
2005-04-28 07:13:38 51°16.25 2°54.191 7.3 104 11 101870 81
2005-04-28 07:13:43 51°16.25 2°54.189 7.2 102 11 101870 81
2005-04-28 07:13:48 51°16.251 2°54.188 7.8 97 11 101870 81
2005-04-28 07:13:53 51°16.251 2°54.186 7 97 11 101870 80
2005-04-28 07:13:58 51°16.251 2°54.185 6.7 96 11 101870 80
2005-04-28 07:14:03 51°16.251 2°54.183 7 100 11 101870 81
2005-04-28 07:14:08 51°16.252 2°54.182 7.4 102 11 101870 81
2005-04-28 07:14:13 51°16.252 2°54.18 6.5 101 11 101870 80
2005-04-28 07:14:18 51°16.252 2°54.179 6.7 98 11 101870 80
2005-04-28 07:14:22 51°16.252 2°54.177 6.8 102 11 101870 80
2005-04-28 07:14:28 51°16.253 2°54.176 6.4 99 11 101870 80
2005-04-28 07:14:32 51°16.253 2°54.174 6.1 98 11 101870 80
2005-04-28 07:14:38 51°16.253 2°54.173 6.7 101 11 101870 80
2005-04-28 07:14:43 51°16.253 2°54.171 6.7 103 11 101870 80
2005-04-28 07:14:48 51°16.254 2°54.169 6.7 98 11 101870 80
2005-04-28 07:14:53 51°16.254 2°54.168 6.9 100 11 101870 80
2005-04-28 07:14:58 51°16.254 2°54.166 7 98 11 101870 80
2005-04-28 07:15:04 51°16.254 2°54.164 6.5 98 11 101870 80
2005-04-28 07:15:08 51°16.254 2°54.162 6.3 103 11 101870 80
2005-04-28 07:15:13 51°16.254 2°54.161 6.4 102 11 101870 81
2005-04-28 07:15:18 51°16.255 2°54.159 6.7 105 11 101870 81
2005-04-28 07:15:23 51°16.255 2°54.158 7.2 105 11.1 101870 80
2005-04-28 07:15:28 51°16.255 2°54.156 6.6 102 11.1 101870 80
2005-04-28 07:15:32 51°16.255 2°54.154 6.1 99 11 101870 80
2005-04-28 07:15:38 51°16.255 2°54.152 6 108 11 101870 80
2005-04-28 07:15:42 51°16.255 2°54.151 6 111 11 101870 80
2005-04-28 07:15:48 51°16.255 2°54.149 6.8 99 11 101870 80
2005-04-28 07:15:53 51°16.255 2°54.147 6.5 105 11.1 101870 80
2005-04-28 07:15:58 51°16.256 2°54.145 6.9 104 11.1 101870 80
2005-04-28 07:16:03 51°16.256 2°54.144 7.2 104 11.1 101880 80
2005-04-28 07:16:08 51°16.256 2°54.142 6.5 99 11.1 101880 80
2005-04-28 07:16:13 51°16.256 2°54.14 6.4 101 11.1 101870 81
2005-04-28 07:16:18 51°16.256 2°54.138 6.3 101 11.1 101870 81
2005-04-28 07:16:23 51°16.257 2°54.137 6.4 96 11.1 101880 81
2005-04-28 07:16:28 51°16.257 2°54.135 7.1 104 11.1 101880 81
2005-04-28 07:16:33 51°16.257 2°54.134 7 102 11.1 101870 80
2005-04-28 07:16:39 51°16.257 2°54.132 7.5 105 11.1 101870 80
2005-04-28 07:16:43 51°16.257 2°54.13 7.2 104 11.1 101870 80
2005-04-28 07:16:48 51°16.258 2°54.128 6.2 104 11.1 101870 80
2005-04-28 07:16:53 51°16.258 2°54.127 6.2 103 11.1 101880 81
2005-04-28 07:16:58 51°16.258 2°54.125 7.7 98 11.1 101880 81
2005-04-28 07:17:03 51°16.259 2°54.123 8 102 11 101870 80
2005-04-28 07:17:08 51°16.259 2°54.122 7.2 103 11 101870 80
2005-04-28 07:17:13 51°16.259 2°54.12 7.5 105 11.1 101870 80
2005-04-28 07:17:18 51°16.259 2°54.119 7 100 11.1 101870 80
2005-04-28 07:17:23 51°16.259 2°54.116 7.6 104 11.1 101870 81
2005-04-28 07:17:28 51°16.259 2°54.115 7.2 104 11.1 101870 81
2005-04-28 07:17:33 51°16.259 2°54.113 7.6 110 11 101870 80
2005-04-28 07:17:38 51°16.26 2°54.111 7.7 108 11 101870 80
2005-04-28 07:17:43 51°16.26 2°54.11 7.5 108 11.1 101880 80
2005-04-28 07:17:48 51°16.26 2°54.108 7.3 108 11.1 101880 80
2005-04-28 07:17:53 51°16.26 2°54.106 7.6 110 11.1 101880 80
2005-04-28 07:17:58 51°16.261 2°54.104 7.2 111 11.1 101880 80
2005-04-28 07:18:03 51°16.261 2°54.103 6.9 111 11.1 101870 80
2005-04-28 07:18:08 51°16.261 2°54.101 7 106 11.1 101870 80
2005-04-28 07:18:13 51°16.261 2°54.099 7 104 11.1 101880 80
2005-04-28 07:18:18 51°16.262 2°54.097 7.2 112 11.1 101880 80
2005-04-28 07:18:22 51°16.262 2°54.096 6.2 112 11.1 101880 80
2005-04-28 07:18:28 51°16.262 2°54.094 7.2 106 11.1 101880 80
2005-04-28 07:18:32 51°16.262 2°54.092 8 105 11.1 101880 80
2005-04-28 07:18:38 51°16.263 2°54.091 7.7 109 11.1 101880 80
2005-04-28 07:18:43 51°16.263 2°54.089 7.3 110 11.1 101880 80
2005-04-28 07:18:48 51°16.263 2°54.087 6.5 111 11.1 101880 80
2005-04-28 07:18:53 51°16.263 2°54.085 6.3 104 11.1 101870 80
2005-04-28 07:18:58 51°16.263 2°54.083 6.9 102 11.1 101870 80
2005-04-28 07:19:03 51°16.264 2°54.082 6.9 106 11.1 101880 80
2005-04-28 07:19:08 51°16.264 2°54.08 6.7 111 11.1 101880 80
2005-04-28 07:19:12 51°16.264 2°54.079 6.7 107 11.1 101870 80
2005-04-28 07:19:18 51°16.264 2°54.077 6.5 109 11.1 101870 80
2005-04-28 07:19:23 51°16.264 2°54.075 6.8 109 11.1 101880 80
2005-04-28 07:19:28 51°16.265 2°54.073 6.6 106 11.1 101880 80
2005-04-28 07:19:32 51°16.265 2°54.072 7.3 106 11.1 101880 80
2005-04-28 07:19:38 51°16.265 2°54.07 6.9 105 11.1 101880 80
2005-04-28 07:19:43 51°16.265 2°54.068 7.2 103 11.1 101880 80
2005-04-28 07:19:49 51°16.266 2°54.066 7.2 101 11.1 101880 80
2005-04-28 07:19:53 51°16.266 2°54.065 7.6 104 11.1 101880 80
2005-04-28 07:19:58 51°16.266 2°54.063 7.8 105 11.1 101880 80
2005-04-28 07:20:03 51°16.266 2°54.061 7.9 109 11.1 101870 80
2005-04-28 07:20:08 51°16.266 2°54.06 7.2 111 11.1 101870 80
2005-04-28 07:20:13 51°16.267 2°54.058 7.4 111 11.1 101880 80
2005-04-28 07:20:18 51°16.267 2°54.056 6.8 110 11.1 101880 80
2005-04-28 07:20:23 51°16.267 2°54.055 6.9 109 11.1 101870 80
2005-04-28 07:20:28 51°16.268 2°54.053 7.4 105 11.1 101870 80
2005-04-28 07:20:33 51°16.268 2°54.051 8.2 105 11.1 101870 80
2005-04-28 07:20:38 51°16.268 2°54.049 7 106 11.1 101870 80
2005-04-28 07:20:43 51°16.268 2°54.048 7.2 105 11.1 101870 80
2005-04-28 07:20:48 51°16.269 2°54.046 7 101 11.1 101870 80
2005-04-28 07:20:53 51°16.269 2°54.045 6.9 108 11.1 101870 80
2005-04-28 07:20:58 51°16.269 2°54.043 7.2 107 11.1 101870 80
2005-04-28 07:21:04 51°16.269 2°54.041 7.6 106 11.1 101870 80
2005-04-28 07:21:08 51°16.27 2°54.039 7.1 107 11.1 101870 80
2005-04-28 07:21:13 51°16.27 2°54.038 7.1 108 11.1 101870 80
2005-04-28 07:21:18 51°16.27 2°54.036 6.2 105 11.1 101870 80
2005-04-28 07:21:23 51°16.27 2°54.034 6.6 107 11.1 101870 80
2005-04-28 07:21:28 51°16.271 2°54.033 6.4 109 11.1 101870 80
2005-04-28 07:21:32 51°16.271 2°54.032 6.1 108 11.1 101870 80
2005-04-28 07:21:38 51°16.271 2°54.029 7.9 105 11.1 101870 80
2005-04-28 07:21:43 51°16.271 2°54.027 7.3 112 11.1 101870 80
2005-04-28 07:21:48 51°16.271 2°54.026 5.6 110 11.1 101870 80
2005-04-28 07:21:52 51°16.271 2°54.024 7.1 103 11.2 101880 80
2005-04-28 07:21:58 51°16.272 2°54.023 7.1 106 11.2 101880 80
2005-04-28 07:22:03 51°16.272 2°54.021 6.6 106 11.2 101870 80
2005-04-28 07:22:08 51°16.272 2°54.019 6.4 102 11.2 101870 80
2005-04-28 07:22:13 51°16.272 2°54.017 6.4 108 11.2 101870 80
2005-04-28 07:22:18 51°16.273 2°54.016 7.5 104 11.2 101870 80
2005-04-28 07:22:23 51°16.273 2°54.015 7.1 105 11.2 101870 80
2005-04-28 07:22:28 51°16.273 2°54.013 7.2 103 11.2 101870 80
2005-04-28 07:22:33 51°16.273 2°54.011 7.2 102 11.1 101870 80
2005-04-28 07:22:38 51°16.273 2°54.009 6.3 103 11.1 101870 80
2005-04-28 07:22:43 51°16.274 2°54.008 6.7 106 11.2 101870 80
2005-04-28 07:22:48 51°16.274 2°54.006 6.8 104 11.2 101870 80
2005-04-28 07:22:53 51°16.274 2°54.005 6.8 108 11.1 101870 80
2005-04-28 07:22:58 51°16.274 2°54.003 7.2 108 11.1 101870 80
2005-04-28 07:23:03 51°16.274 2°54.002 7.1 113 11.2 101870 80
2005-04-28 07:23:08 51°16.275 2°54.001 6.2 106 11.2 101870 80
2005-04-28 07:23:13 51°16.275 2°54.001 6.1 108 11.2 101870 80
2005-04-28 07:23:18 51°16.276 2°54.001 6.5 113 11.2 101870 80
2005-04-28 07:23:23 51°16.277 2°54.002 6.7 106 11.2 101870 80
2005-04-28 07:23:28 51°16.279 2°54.004 6 111 11.2 101870 80
2005-04-28 07:23:33 51°16.281 2°54.008 6.2 110 11.2 101870 80
2005-04-28 07:23:38 51°16.284 2°54.012 6.3 114 11.2 101870 80
2005-04-28 07:23:43 51°16.288 2°54.016 6.4 117 11.2 101870 80
2005-04-28 07:23:48 51°16.293 2°54.02 5.3 118 11.2 101870 80
2005-04-28 07:23:53 51°16.298 2°54.023 5.1 126 11.2 101870 80
2005-04-28 07:23:58 51°16.304 2°54.025 4.7 136 11.2 101870 80
2005-04-28 07:24:03 51°16.312 2°54.026 4.7 137 11.2 101880 80
2005-04-28 07:24:08 51°16.321 2°54.025 3.9 156 11.2 101880 80
2005-04-28 07:24:13 51°16.329 2°54.023 3.6 162 11.2 101870 80
2005-04-28 07:24:18 51°16.337 2°54.019 2.4 193 11.2 101870 80
2005-04-28 07:24:24 51°16.348 2°54.011 2 190 11.2 101880 80
2005-04-28 07:24:28 51°16.356 2°54.003 1 177 11.2 101880 80
2005-04-28 07:24:33 51°16.365 2°53.994 0.9 164 11.2 101880 80
2005-04-28 07:24:38 51°16.373 2°53.984 0.7 198 11.2 101880 80
2005-04-28 07:24:43 51°16.384 2°53.972 0.9 229 11.2 101890 80
2005-04-28 07:24:48 51°16.394 2°53.96 2.6 240 11.2 101890 80
2005-04-28 07:24:53 51°16.405 2°53.946 2.3 243 11.2 101880 80
2005-04-28 07:24:58 51°16.416 2°53.93 2.4 266 11.2 101880 80
2005-04-28 07:25:03 51°16.426 2°53.915 2.4 263 11.2 101880 80
2005-04-28 07:25:08 51°16.439 2°53.895 3.2 280 11.2 101880 80
2005-04-28 07:25:13 51°16.451 2°53.875 3.5 283 11.2 101880 80
2005-04-28 07:25:18 51°16.464 2°53.855 4.6 278 11.2 101880 80
2005-04-28 07:25:22 51°16.474 2°53.837 3.6 290 11.2 101880 80
2005-04-28 07:25:28 51°16.488 2°53.811 3.5 288 11.2 101880 80
2005-04-28 07:25:32 51°16.498 2°53.794 3.6 283 11.2 101880 80
2005-04-28 07:25:38 51°16.512 2°53.769 3.9 271 11.2 101880 80
2005-04-28 07:25:43 51°16.527 2°53.745 3.5 283 11.2 101890 80
2005-04-28 07:25:48 51°16.54 2°53.722 3.5 303 11.2 101890 80
2005-04-28 07:25:53 51°16.553 2°53.7 3.7 293 11.2 101880 80
2005-04-28 07:25:58 51°16.567 2°53.677 3.5 307 11.2 101880 80
2005-04-28 07:26:03 51°16.58 2°53.655 4 305 11.2 101890 80
2005-04-28 07:26:08 51°16.593 2°53.632 3.9 295 11.2 101890 80
2005-04-28 07:26:13 51°16.606 2°53.609 3.7 301 11.2 101890 80
2005-04-28 07:26:18 51°16.618 2°53.589 3.3 300 11.2 101890 80
2005-04-28 07:26:22 51°16.631 2°53.569 3.3 293 11.2 101880 80
2005-04-28 07:26:28 51°16.647 2°53.542 4.5 301 11.2 101880 80
2005-04-28 07:26:33 51°16.66 2°53.519 4.7 282 11.2 101890 80
2005-04-28 07:26:38 51°16.672 2°53.499 4.6 277 11.2 101890 80
2005-04-28 07:26:43 51°16.686 2°53.474 4.8 270 11.2 101890 80
2005-04-28 07:26:48 51°16.7 2°53.451 3.7 298 11.2 101890 80
2005-04-28 07:26:53 51°16.714 2°53.429 3.6 296 11.2 101890 80
2005-04-28 07:26:58 51°16.727 2°53.406 4.1 300 11.2 101890 80
2005-04-28 07:27:03 51°16.74 2°53.383 3.9 295 11.2 101890 80
2005-04-28 07:27:08 51°16.753 2°53.36 3.9 294 11.2 101890 80
2005-04-28 07:27:13 51°16.767 2°53.337 3.8 296 11.3 101880 80
2005-04-28 07:27:18 51°16.78 2°53.315 3.7 302 11.3 101880 80
2005-04-28 07:27:23 51°16.793 2°53.292 4.1 302 11.3 101880 80
2005-04-28 07:27:28 51°16.806 2°53.269 3.5 295 11.3 101880 80
2005-04-28 07:27:33 51°16.82 2°53.246 3.4 292 11.3 101890 79
2005-04-28 07:27:38 51°16.833 2°53.224 3.9 291 11.3 101890 79
2005-04-28 07:27:43 51°16.846 2°53.204 3.6 295 11.3 101880 79
2005-04-28 07:27:48 51°16.86 2°53.18 3.4 287 11.3 101880 79
2005-04-28 07:27:53 51°16.873 2°53.157 3.1 289 11.3 101890 80
2005-04-28 07:27:58 51°16.886 2°53.136 3.3 285 11.3 101890 80
2005-04-28 07:28:03 51°16.899 2°53.115 3.8 285 11.3 101880 80
2005-04-28 07:28:08 51°16.911 2°53.094 4.1 279 11.3 101880 80
2005-04-28 07:28:13 51°16.923 2°53.076 4 279 11.3 101890 80
2005-04-28 07:28:17 51°16.935 2°53.058 3.8 271 11.3 101890 80
2005-04-28 07:28:24 51°16.952 2°53.033 3.8 277 11.3 101890 79
2005-04-28 07:28:28 51°16.965 2°53.016 2.8 296 11.3 101890 79
2005-04-28 07:28:33 51°16.979 2°52.996 3.2 293 11.3 101890 79
2005-04-28 07:28:38 51°16.991 2°52.978 3.8 277 11.3 101890 79
2005-04-28 07:28:43 51°17.006 2°52.956 3.9 273 11.3 101890 79
2005-04-28 07:28:48 51°17.019 2°52.935 3.7 292 11.3 101890 79
2005-04-28 07:28:54 51°17.033 2°52.911 4.1 294 11.3 101890 79
2005-04-28 07:28:58 51°17.045 2°52.89 4.9 291 11.3 101890 79
2005-04-28 07:29:03 51°17.056 2°52.866 4.7 293 11.3 101890 79
2005-04-28 07:29:08 51°17.068 2°52.841 5.6 295 11.3 101890 79
2005-04-28 07:29:12 51°17.077 2°52.821 5.7 289 11.3 101890 79
2005-04-28 07:29:18 51°17.091 2°52.793 6.1 296 11.3 101890 79
2005-04-28 07:29:23 51°17.104 2°52.766 5.3 299 11.3 101890 79
2005-04-28 07:29:29 51°17.118 2°52.739 4.4 287 11.3 101890 79
2005-04-28 07:29:33 51°17.129 2°52.718 4.2 305 11.4 101890 79
2005-04-28 07:29:38 51°17.142 2°52.694 4.1 288 11.4 101890 79
2005-04-28 07:29:43 51°17.156 2°52.671 5 293 11.4 101890 79
2005-04-28 07:29:48 51°17.169 2°52.649 5 286 11.4 101890 79
2005-04-28 07:29:54 51°17.184 2°52.626 5.4 289 11.4 101890 79
2005-04-28 07:29:58 51°17.195 2°52.608 4.9 285 11.4 101890 79
2005-04-28 07:30:03 51°17.21 2°52.583 4.4 294 11.4 101890 79
2005-04-28 07:30:08 51°17.223 2°52.56 5.1 298 11.4 101890 79
2005-04-28 07:30:13 51°17.236 2°52.537 5 297 11.4 101890 79
2005-04-28 07:30:18 51°17.248 2°52.516 5.1 296 11.4 101890 79
2005-04-28 07:30:23 51°17.262 2°52.491 4.4 300 11.4 101890 79
2005-04-28 07:30:28 51°17.276 2°52.468 4.9 301 11.4 101890 79
2005-04-28 07:30:32 51°17.287 2°52.45 5.3 286 11.4 101890 79
2005-04-28 07:30:38 51°17.303 2°52.422 5.3 294 11.4 101890 79
2005-04-28 07:30:44 51°17.319 2°52.399 5.4 288 11.4 101890 79
2005-04-28 07:30:48 51°17.332 2°52.38 5.7 281 11.4 101890 79
2005-04-28 07:30:53 51°17.347 2°52.359 5.4 279 11.4 101890 79
2005-04-28 07:30:58 51°17.362 2°52.339 4.8 284 11.4 101890 79
2005-04-28 07:31:03 51°17.375 2°52.321 4.2 288 11.4 101890 79
2005-04-28 07:31:09 51°17.393 2°52.296 4.8 293 11.4 101890 79
2005-04-28 07:31:13 51°17.405 2°52.28 4.6 288 11.4 101890 78
2005-04-28 07:31:18 51°17.421 2°52.257 4.9 305 11.4 101890 78
2005-04-28 07:31:23 51°17.436 2°52.236 5 286 11.4 101890 78
2005-04-28 07:31:28 51°17.45 2°52.215 5.1 288 11.4 101890 78
2005-04-28 07:31:33 51°17.464 2°52.194 5 294 11.4 101890 78
2005-04-28 07:31:38 51°17.477 2°52.175 4.1 285 11.4 101890 78
2005-04-28 07:31:43 51°17.493 2°52.152 4.9 284 11.4 101890 78
2005-04-28 07:31:49 51°17.509 2°52.129 4.7 292 11.4 101890 78
2005-04-28 07:31:53 51°17.522 2°52.11 4.6 293 11.4 101890 78
2005-04-28 07:31:58 51°17.537 2°52.089 3.8 287 11.4 101890 78
2005-04-28 07:32:03 51°17.551 2°52.069 4.2 298 11.4 101890 78
2005-04-28 07:32:08 51°17.566 2°52.048 5.2 286 11.4 101890 78
2005-04-28 07:32:13 51°17.58 2°52.027 4.3 285 11.4 101890 78
2005-04-28 07:32:18 51°17.594 2°52.009 3.8 282 11.4 101890 78
2005-04-28 07:32:22 51°17.607 2°51.99 3.8 282 11.5 101890 78
2005-04-28 07:32:28 51°17.624 2°51.966 3.9 294 11.5 101890 78
2005-04-28 07:32:33 51°17.639 2°51.945 4 295 11.5 101890 78
2005-04-28 07:32:38 51°17.653 2°51.925 4.4 282 11.5 101890 78
2005-04-28 07:32:43 51°17.666 2°51.907 4 290 11.5 101890 78
2005-04-28 07:32:48 51°17.682 2°51.884 3.8 294 11.5 101890 78
2005-04-28 07:32:53 51°17.697 2°51.864 4 285 11.5 101890 78
2005-04-28 07:32:58 51°17.711 2°51.843 4.5 296 11.5 101890 78
2005-04-28 07:33:04 51°17.727 2°51.821 4.2 299 11.5 101890 78
2005-04-28 07:33:08 51°17.74 2°51.802 4.2 294 11.5 101890 78
2005-04-28 07:33:13 51°17.754 2°51.781 4.3 291 11.5 101890 78
2005-04-28 07:33:18 51°17.766 2°51.762 4.3 292 11.5 101890 78
2005-04-28 07:33:22 51°17.779 2°51.744 4.6 285 11.5 101890 78
2005-04-28 07:33:28 51°17.796 2°51.719 4.8 288 11.5 101890 78
2005-04-28 07:33:33 51°17.811 2°51.698 4.3 289 11.5 101890 78
2005-04-28 07:33:38 51°17.825 2°51.677 3.6 291 11.5 101890 78
2005-04-28 07:33:43 51°17.838 2°51.659 4.6 288 11.5 101890 78
2005-04-28 07:33:49 51°17.855 2°51.634 4.6 295 11.5 101890 78
2005-04-28 07:33:53 51°17.868 2°51.615 4.1 294 11.5 101890 78
2005-04-28 07:33:58 51°17.883 2°51.595 4.5 287 11.5 101890 78
2005-04-28 07:34:03 51°17.898 2°51.575 4.5 293 11.5 101890 78
2005-04-28 07:34:08 51°17.912 2°51.554 4.6 284 11.5 101890 78
2005-04-28 07:34:13 51°17.927 2°51.533 5.4 281 11.5 101890 78
2005-04-28 07:34:18 51°17.94 2°51.514 5.5 293 11.5 101890 78
2005-04-28 07:34:22 51°17.953 2°51.494 5.5 298 11.5 101890 78
2005-04-28 07:34:28 51°17.97 2°51.469 5 282 11.5 101890 78
2005-04-28 07:34:33 51°17.984 2°51.449 5 283 11.5 101890 78
2005-04-28 07:34:38 51°17.998 2°51.427 4.7 289 11.5 101890 78
2005-04-28 07:34:43 51°18.014 2°51.403 5.1 283 11.5 101890 78
2005-04-28 07:34:48 51°18.029 2°51.382 5.3 284 11.5 101890 78
2005-04-28 07:34:53 51°18.042 2°51.363 5.7 279 11.5 101890 78
2005-04-28 07:34:58 51°18.057 2°51.343 4.9 287 11.5 101890 78
2005-04-28 07:35:03 51°18.073 2°51.32 5.4 274 11.5 101890 78
2005-04-28 07:35:08 51°18.088 2°51.299 6.3 273 11.5 101890 78
2005-04-28 07:35:13 51°18.102 2°51.28 5.6 279 11.5 101890 78
2005-04-28 07:35:18 51°18.117 2°51.259 6 275 11.5 101890 78
2005-04-28 07:35:23 51°18.134 2°51.237 5.2 286 11.5 101900 78
2005-04-28 07:35:28 51°18.149 2°51.217 5.1 270 11.5 101900 78
2005-04-28 07:35:33 51°18.163 2°51.199 4.1 268 11.5 101890 78
2005-04-28 07:35:38 51°18.18 2°51.177 4.8 279 11.5 101890 78
2005-04-28 07:35:42 51°18.191 2°51.163 4.5 294 11.5 101890 78
2005-04-28 07:35:48 51°18.21 2°51.138 4.6 272 11.5 101890 78
2005-04-28 07:35:53 51°18.225 2°51.12 4.6 273 11.5 101900 78
2005-04-28 07:35:58 51°18.237 2°51.103 3.7 264 11.5 101900 78
2005-04-28 07:36:03 51°18.252 2°51.085 3.6 267 11.5 101890 78
2005-04-28 07:36:08 51°18.263 2°51.071 2.2 260 11.5 101890 78
2005-04-28 07:36:13 51°18.275 2°51.057 2.2 252 11.5 101890 78
2005-04-28 07:36:18 51°18.287 2°51.045 2.6 230 11.5 101890 78
2005-04-28 07:36:23 51°18.299 2°51.036 2.4 227 11.5 101890 78
2005-04-28 07:36:28 51°18.312 2°51.028 2.3 183 11.5 101890 78
2005-04-28 07:36:33 51°18.324 2°51.023 2.1 149 11.5 101900 78
2005-04-28 07:36:38 51°18.335 2°51.019 1.2 165 11.5 101900 78
2005-04-28 07:36:42 51°18.342 2°51.017 1.1 174 11.4 101900 78
2005-04-28 07:36:48 51°18.356 2°51.014 2.9 176 11.4 101900 78
2005-04-28 07:36:53 51°18.366 2°51.013 3.4 160 11.4 101900 78
2005-04-28 07:36:58 51°18.377 2°51.013 3.4 155 11.4 101900 78
2005-04-28 07:37:03 51°18.387 2°51.013 3.9 169 11.4 101900 78
2005-04-28 07:37:08 51°18.397 2°51.014 4.9 153 11.4 101900 78
2005-04-28 07:37:13 51°18.405 2°51.015 4.4 153 11.4 101900 78
2005-04-28 07:37:18 51°18.415 2°51.016 4 138 11.4 101900 78
2005-04-28 07:37:23 51°18.425 2°51.019 4 138 11.4 101890 78
2005-04-28 07:37:28 51°18.433 2°51.021 4.9 138 11.4 101890 78
2005-04-28 07:37:32 51°18.439 2°51.023 5.2 151 11.4 101890 78
2005-04-28 07:37:37 51°18.446 2°51.026 5.6 143 11.4 101890 78
2005-04-28 07:37:43 51°18.453 2°51.029 5.3 137 11.4 101900 78
2005-04-28 07:37:48 51°18.458 2°51.032 6.2 135 11.4 101900 78
2005-04-28 07:37:53 51°18.462 2°51.035 6.6 135 11.4 101890 78
2005-04-28 07:37:58 51°18.466 2°51.038 6.1 123 11.4 101890 78
2005-04-28 07:38:02 51°18.468 2°51.039 6.4 125 11.4 101890 78
2005-04-28 07:38:08 51°18.471 2°51.041 8.1 121 11.4 101890 78
2005-04-28 07:38:13 51°18.472 2°51.042 7.1 125 11.4 101890 79
2005-04-28 07:38:18 51°18.473 2°51.041 8.5 126 11.4 101890 79
2005-04-28 07:38:23 51°18.473 2°51.039 7.8 123 11.4 101890 79
2005-04-28 07:38:28 51°18.474 2°51.037 7.7 122 11.4 101890 79
2005-04-28 07:38:33 51°18.475 2°51.036 7.8 121 11.3 101880 79
2005-04-28 07:38:38 51°18.476 2°51.033 7.7 120 11.3 101880 79
2005-04-28 07:38:43 51°18.476 2°51.031 7.7 120 11.3 101880 79
2005-04-28 07:38:48 51°18.477 2°51.029 8.1 116 11.3 101880 79
2005-04-28 07:38:53 51°18.477 2°51.027 7.6 126 11.3 101890 79
2005-04-28 07:38:58 51°18.478 2°51.026 7.5 123 11.3 101890 79
2005-04-28 07:39:03 51°18.478 2°51.024 7.6 117 11.3 101890 79
2005-04-28 07:39:08 51°18.479 2°51.023 7.8 122 11.3 101890 79
2005-04-28 07:39:13 51°18.48 2°51.021 7.8 122 11.3 101890 79
2005-04-28 07:39:18 51°18.48 2°51.02 8.1 125 11.3 101890 79
2005-04-28 07:39:23 51°18.48 2°51.017 7.1 123 11.3 101890 79
2005-04-28 07:39:28 51°18.481 2°51.015 7.1 126 11.3 101890 79
2005-04-28 07:39:33 51°18.481 2°51.014 6.9 123 11.3 101890 79
2005-04-28 07:39:38 51°18.482 2°51.012 8.8 123 11.3 101890 79
2005-04-28 07:39:43 51°18.482 2°51.01 8 127 11.3 101890 79
2005-04-28 07:39:48 51°18.483 2°51.008 8 126 11.3 101890 79
2005-04-28 07:39:53 51°18.483 2°51.007 8.6 125 11.3 101890 79
2005-04-28 07:39:58 51°18.484 2°51.005 7.3 127 11.3 101890 79
2005-04-28 07:40:03 51°18.484 2°51.003 7.8 126 11.3 101890 79
2005-04-28 07:40:08 51°18.485 2°51.001 8 126 11.3 101890 79
2005-04-28 07:40:13 51°18.485 2°51 8.7 125 11.3 101890 79
2005-04-28 07:40:18 51°18.486 2°50.998 7.8 124 11.3 101890 79
2005-04-28 07:40:23 51°18.486 2°50.996 8.3 123 11.2 101890 79
2005-04-28 07:40:28 51°18.487 2°50.994 7.7 125 11.2 101890 79
2005-04-28 07:40:33 51°18.487 2°50.993 7.8 121 11.3 101890 79
2005-04-28 07:40:38 51°18.488 2°50.991 6.6 125 11.3 101890 79
2005-04-28 07:40:43 51°18.488 2°50.989 7.3 124 11.2 101890 79
2005-04-28 07:40:48 51°18.489 2°50.988 8 116 11.2 101890 79
2005-04-28 07:40:53 51°18.489 2°50.986 8 127 11.2 101890 79
2005-04-28 07:40:58 51°18.49 2°50.984 7.9 120 11.2 101890 79
2005-04-28 07:41:03 51°18.49 2°50.983 8 121 11.2 101890 80
2005-04-28 07:41:08 51°18.491 2°50.981 8.6 119 11.2 101890 80
2005-04-28 07:41:12 51°18.491 2°50.979 8.6 120 11.2 101890 80
2005-04-28 07:41:18 51°18.492 2°50.977 7.3 122 11.2 101890 80
2005-04-28 07:41:23 51°18.492 2°50.976 6.9 121 11.2 101890 80
2005-04-28 07:41:28 51°18.493 2°50.974 7.3 121 11.2 101890 80
2005-04-28 07:41:32 51°18.493 2°50.973 7.2 119 11.2 101890 80
2005-04-28 07:41:38 51°18.494 2°50.971 7.4 119 11.2 101890 80
2005-04-28 07:41:43 51°18.495 2°50.969 7.5 117 11.2 101890 80
2005-04-28 07:41:48 51°18.495 2°50.967 8.3 120 11.2 101890 80
2005-04-28 07:41:52 51°18.495 2°50.966 7.3 118 11.2 101890 80
2005-04-28 07:41:58 51°18.496 2°50.964 8 112 11.2 101890 80
2005-04-28 07:42:03 51°18.496 2°50.963 8 116 11.2 101890 80
2005-04-28 07:42:08 51°18.497 2°50.961 9.3 112 11.2 101890 80
2005-04-28 07:42:13 51°18.497 2°50.959 9.1 113 11.2 101890 80
2005-04-28 07:42:18 51°18.498 2°50.958 8.7 114 11.2 101890 80
2005-04-28 07:42:23 51°18.498 2°50.956 8 114 11.2 101890 80
2005-04-28 07:42:28 51°18.499 2°50.954 7.2 116 11.2 101890 80
2005-04-28 07:42:33 51°18.499 2°50.953 8.1 114 11.2 101890 80
2005-04-28 07:42:38 51°18.499 2°50.951 8 115 11.2 101890 80
2005-04-28 07:42:43 51°18.5 2°50.949 7.5 112 11.2 101890 80
2005-04-28 07:42:48 51°18.501 2°50.948 7.8 109 11.2 101890 80
2005-04-28 07:42:52 51°18.501 2°50.947 6.7 112 11.2 101890 80
2005-04-28 07:42:58 51°18.501 2°50.945 8.5 109 11.2 101890 80
2005-04-28 07:43:03 51°18.502 2°50.943 7.6 108 11.2 101890 80
2005-04-28 07:43:08 51°18.503 2°50.942 8.2 107 11.2 101890 80
2005-04-28 07:43:13 51°18.503 2°50.94 8.6 108 11.2 101890 80
2005-04-28 07:43:18 51°18.504 2°50.938 8.1 107 11.2 101890 80
2005-04-28 07:43:23 51°18.504 2°50.937 8.7 102 11.2 101890 80
2005-04-28 07:43:28 51°18.505 2°50.935 8.4 104 11.2 101890 80
2005-04-28 07:43:33 51°18.506 2°50.934 8.4 105 11.2 101890 80
2005-04-28 07:43:38 51°18.506 2°50.932 8.8 106 11.2 101890 80
2005-04-28 07:43:43 51°18.507 2°50.93 8.2 102 11.2 101890 80
2005-04-28 07:43:48 51°18.507 2°50.929 8.2 104 11.2 101890 80
2005-04-28 07:43:52 51°18.507 2°50.928 8 102 11.2 101890 80
2005-04-28 07:43:58 51°18.508 2°50.926 8.5 102 11.2 101890 80
2005-04-28 07:44:03 51°18.508 2°50.924 8.8 103 11.2 101880 80
2005-04-28 07:44:08 51°18.509 2°50.923 8.2 96 11.2 101880 80
2005-04-28 07:44:13 51°18.509 2°50.922 7.8 101 11.2 101890 79
2005-04-28 07:44:18 51°18.51 2°50.92 7.9 103 11.2 101890 79
2005-04-28 07:44:23 51°18.51 2°50.919 7.6 105 11.2 101890 79
2005-04-28 07:44:28 51°18.511 2°50.918 8.2 100 11.2 101890 79
2005-04-28 07:44:33 51°18.511 2°50.917 7.7 100 11.2 101880 79
2005-04-28 07:44:38 51°18.512 2°50.916 8.3 101 11.2 101880 79
2005-04-28 07:44:43 51°18.512 2°50.914 8.3 103 11.2 101890 79
2005-04-28 07:44:48 51°18.513 2°50.913 8.3 105 11.2 101890 79
2005-04-28 07:44:52 51°18.513 2°50.913 7.9 98 11.2 101880 79
2005-04-28 07:44:58 51°18.513 2°50.911 8 101 11.2 101880 79
2005-04-28 07:45:03 51°18.514 2°50.91 8.3 104 11.2 101890 79
2005-04-28 07:45:08 51°18.514 2°50.909 8.3 100 11.2 101890 79
2005-04-28 07:45:13 51°18.514 2°50.908 8.9 101 11.2 101890 79
2005-04-28 07:45:18 51°18.515 2°50.907 7.9 101 11.2 101890 79
2005-04-28 07:45:23 51°18.515 2°50.907 7.7 100 11.2 101890 79
2005-04-28 07:45:28 51°18.516 2°50.906 7.6 105 11.2 101890 79
2005-04-28 07:45:33 51°18.516 2°50.906 8 105 11.2 101890 79
2005-04-28 07:45:38 51°18.517 2°50.905 7.8 103 11.2 101890 79
2005-04-28 07:45:43 51°18.517 2°50.904 8.1 108 11.2 101880 79
2005-04-28 07:45:48 51°18.517 2°50.904 7.7 102 11.2 101880 79
2005-04-28 07:45:52 51°18.518 2°50.903 7.7 101 11.2 101880 79
2005-04-28 07:45:58 51°18.518 2°50.903 7.9 106 11.2 101880 79
2005-04-28 07:46:03 51°18.519 2°50.903 8.2 105 11.2 101890 79
2005-04-28 07:46:08 51°18.519 2°50.902 8.2 108 11.2 101890 79
2005-04-28 07:46:13 51°18.52 2°50.902 8.4 107 11.2 101890 79
2005-04-28 07:46:18 51°18.52 2°50.902 8.8 105 11.2 101890 79
2005-04-28 07:46:23 51°18.521 2°50.902 8.9 109 11.2 101890 79
2005-04-28 07:46:28 51°18.521 2°50.902 7.9 107 11.2 101890 79
2005-04-28 07:46:33 51°18.522 2°50.901 8.3 110 11.2 101890 80
2005-04-28 07:46:38 51°18.522 2°50.901 7.9 113 11.2 101890 80
2005-04-28 07:46:43 51°18.523 2°50.901 8 108 11.2 101890 80
2005-04-28 07:46:48 51°18.524 2°50.902 7.8 112 11.2 101890 80
2005-04-28 07:46:53 51°18.524 2°50.902 7 113 11.2 101890 80
2005-04-28 07:46:58 51°18.525 2°50.902 8 113 11.2 101890 80
2005-04-28 07:47:03 51°18.525 2°50.902 8.3 110 11.2 101890 80
2005-04-28 07:47:08 51°18.526 2°50.902 7.1 120 11.2 101890 80
2005-04-28 07:47:12 51°18.526 2°50.902 7.2 117 11.2 101890 80
2005-04-28 07:47:18 51°18.527 2°50.903 7.1 113 11.2 101890 80
2005-04-28 07:47:23 51°18.528 2°50.904 6.7 115 11.2 101890 80
2005-04-28 07:47:28 51°18.529 2°50.904 7.3 112 11.2 101890 80
2005-04-28 07:47:33 51°18.53 2°50.904 7.5 108 11.2 101890 80
2005-04-28 07:47:38 51°18.53 2°50.905 7.5 107 11.2 101890 80
2005-04-28 07:47:43 51°18.531 2°50.906 7.5 109 11.2 101890 80
2005-04-28 07:47:48 51°18.531 2°50.906 7.1 113 11.2 101890 80
2005-04-28 07:47:53 51°18.532 2°50.907 7.7 110 11.2 101890 80
2005-04-28 07:47:58 51°18.533 2°50.907 7.2 110 11.2 101890 80
2005-04-28 07:48:03 51°18.533 2°50.908 6.8 109 11.2 101890 80
2005-04-28 07:48:08 51°18.534 2°50.909 6.9 112 11.2 101890 80
2005-04-28 07:48:13 51°18.535 2°50.91 6.5 111 11.2 101890 80
2005-04-28 07:48:18 51°18.535 2°50.911 6.9 111 11.2 101890 80
2005-04-28 07:48:22 51°18.536 2°50.911 7.2 106 11.2 101890 80
2005-04-28 07:48:28 51°18.537 2°50.912 7.7 112 11.2 101890 80
2005-04-28 07:48:33 51°18.537 2°50.913 7.2 111 11.2 101890 80
2005-04-28 07:48:38 51°18.538 2°50.914 7.5 103 11.2 101890 80
2005-04-28 07:48:43 51°18.538 2°50.915 7.1 104 11.2 101890 80
2005-04-28 07:48:48 51°18.539 2°50.916 7.1 106 11.2 101890 80
2005-04-28 07:48:53 51°18.54 2°50.917 7.2 101 11.2 101890 80
2005-04-28 07:48:58 51°18.54 2°50.918 7.5 107 11.2 101890 80
2005-04-28 07:49:03 51°18.541 2°50.919 7.4 105 11.2 101890 81
2005-04-28 07:49:08 51°18.541 2°50.92 7.2 104 11.2 101890 81
2005-04-28 07:49:13 51°18.542 2°50.921 7.1 116 11.2 101890 81
2005-04-28 07:49:18 51°18.543 2°50.922 7.4 107 11.2 101890 81
2005-04-28 07:49:24 51°18.543 2°50.923 7.3 107 11.2 101890 81
2005-04-28 07:49:28 51°18.544 2°50.924 7.7 104 11.2 101890 81
2005-04-28 07:49:33 51°18.545 2°50.925 7.2 105 11.1 101890 81
2005-04-28 07:49:38 51°18.545 2°50.925 7.3 103 11.1 101890 81
2005-04-28 07:49:43 51°18.545 2°50.926 6.6 106 11.2 101890 81
2005-04-28 07:49:49 51°18.546 2°50.927 7 107 11.2 101890 81
2005-04-28 07:49:52 51°18.546 2°50.927 6.6 102 11.2 101890 81
2005-04-28 07:49:58 51°18.547 2°50.928 7.3 103 11.2 101890 81
2005-04-28 07:50:03 51°18.547 2°50.929 6.5 103 11.2 101890 81
2005-04-28 07:50:08 51°18.548 2°50.93 7.8 100 11.2 101890 81
2005-04-28 07:50:13 51°18.548 2°50.931 8.4 100 11.2 101890 81
2005-04-28 07:50:18 51°18.549 2°50.932 7.6 102 11.2 101890 81
2005-04-28 07:50:23 51°18.549 2°50.933 7.6 102 11.2 101890 81
2005-04-28 07:50:28 51°18.549 2°50.933 7.1 100 11.2 101890 81
2005-04-28 07:50:33 51°18.55 2°50.934 7.3 100 11.2 101890 81
2005-04-28 07:50:38 51°18.55 2°50.935 7.3 104 11.2 101890 81
2005-04-28 07:50:43 51°18.551 2°50.936 7.2 95 11.1 101890 81
2005-04-28 07:50:48 51°18.552 2°50.937 7.3 100 11.1 101890 81
2005-04-28 07:50:53 51°18.552 2°50.937 7 96 11.1 101890 81
2005-04-28 07:50:58 51°18.552 2°50.938 7 98 11.1 101890 81
2005-04-28 07:51:03 51°18.553 2°50.939 6.3 105 11.1 101880 81
2005-04-28 07:51:08 51°18.553 2°50.939 7 105 11.1 101880 81
2005-04-28 07:51:13 51°18.553 2°50.94 7.4 96 11.2 101890 81
2005-04-28 07:51:18 51°18.554 2°50.941 7.6 102 11.2 101890 81
2005-04-28 07:51:23 51°18.554 2°50.942 7.1 94 11.2 101880 81
2005-04-28 07:51:28 51°18.554 2°50.942 7.4 97 11.2 101880 81
2005-04-28 07:51:33 51°18.555 2°50.943 7.8 100 11.2 101890 81
2005-04-28 07:51:38 51°18.555 2°50.944 7.5 98 11.2 101890 81
2005-04-28 07:51:42 51°18.555 2°50.945 7.1 100 11.1 101880 81
2005-04-28 07:51:48 51°18.556 2°50.946 8.2 101 11.1 101880 81
2005-04-28 07:51:53 51°18.556 2°50.946 8 94 11.1 101880 81
2005-04-28 07:51:58 51°18.557 2°50.947 8.7 97 11.1 101880 81
2005-04-28 07:52:03 51°18.557 2°50.948 8.3 98 11.1 101880 81
2005-04-28 07:52:08 51°18.557 2°50.948 8.2 95 11.1 101880 81
2005-04-28 07:52:13 51°18.558 2°50.949 8.4 101 11.1 101880 81
2005-04-28 07:52:18 51°18.558 2°50.949 7.7 99 11.1 101880 81
2005-04-28 07:52:23 51°18.558 2°50.95 7.3 98 11.1 101880 81
2005-04-28 07:52:28 51°18.559 2°50.951 7.3 95 11.1 101880 81
2005-04-28 07:52:32 51°18.559 2°50.951 7.8 92 11.1 101880 81
2005-04-28 07:52:38 51°18.559 2°50.952 8.2 99 11.1 101880 81
2005-04-28 07:52:43 51°18.56 2°50.953 8.3 93 11.1 101880 81
2005-04-28 07:52:48 51°18.56 2°50.953 8.5 98 11.1 101880 81
2005-04-28 07:52:53 51°18.56 2°50.954 8.8 99 11.1 101880 81
2005-04-28 07:52:58 51°18.561 2°50.954 8.7 95 11.1 101880 81
2005-04-28 07:53:02 51°18.561 2°50.954 9.5 93 11.2 101880 81
2005-04-28 07:53:08 51°18.561 2°50.954 8.2 103 11.2 101880 81
2005-04-28 07:53:13 51°18.561 2°50.955 7.5 101 11.1 101880 81
2005-04-28 07:53:18 51°18.562 2°50.955 7.8 98 11.1 101880 81
2005-04-28 07:53:23 51°18.562 2°50.955 7.2 100 11.1 101880 80
2005-04-28 07:53:28 51°18.563 2°50.955 7.2 101 11.1 101880 80
2005-04-28 07:53:32 51°18.563 2°50.955 6.6 100 11.1 101880 80
2005-04-28 07:53:38 51°18.563 2°50.955 7.2 99 11.1 101880 80
2005-04-28 07:53:43 51°18.564 2°50.955 7.2 98 11.2 101880 80
2005-04-28 07:53:48 51°18.564 2°50.955 7.6 97 11.2 101880 80
2005-04-28 07:53:53 51°18.565 2°50.955 7.8 97 11.2 101880 80
2005-04-28 07:53:58 51°18.565 2°50.954 7.2 100 11.2 101880 80
2005-04-28 07:54:03 51°18.565 2°50.954 7 95 11.2 101880 80
2005-04-28 07:54:08 51°18.565 2°50.953 8.2 94 11.2 101880 80
2005-04-28 07:54:12 51°18.565 2°50.953 8.5 94 11.2 101880 81
2005-04-28 07:54:18 51°18.566 2°50.953 8.1 98 11.2 101880 81
2005-04-28 07:54:23 51°18.566 2°50.952 7.6 96 11.2 101880 81
2005-04-28 07:54:28 51°18.566 2°50.951 7.4 97 11.2 101880 81
2005-04-28 07:54:32 51°18.567 2°50.951 7.7 96 11.2 101880 80
2005-04-28 07:54:38 51°18.567 2°50.95 7.5 95 11.2 101880 80
2005-04-28 07:54:43 51°18.567 2°50.949 7.6 97 11.2 101880 80
2005-04-28 07:54:48 51°18.567 2°50.949 7.6 94 11.2 101880 80
2005-04-28 07:54:53 51°18.567 2°50.948 7.5 98 11.2 101880 80
2005-04-28 07:54:58 51°18.567 2°50.947 7.3 92 11.2 101880 80
2005-04-28 07:55:03 51°18.568 2°50.946 7.7 98 11.2 101880 80
2005-04-28 07:55:08 51°18.568 2°50.946 7.6 96 11.2 101880 80
2005-04-28 07:55:13 51°18.568 2°50.944 7.2 98 11.2 101880 80
2005-04-28 07:55:18 51°18.568 2°50.944 7.1 98 11.2 101880 80
2005-04-28 07:55:23 51°18.568 2°50.943 7.7 90 11.2 101880 80
2005-04-28 07:55:28 51°18.568 2°50.942 7.8 98 11.2 101880 80
2005-04-28 07:55:33 51°18.568 2°50.94 7.9 100 11.2 101880 80
2005-04-28 07:55:38 51°18.569 2°50.94 7.1 101 11.2 101880 80
2005-04-28 07:55:43 51°18.569 2°50.939 7.9 96 11.2 101880 80
2005-04-28 07:55:48 51°18.569 2°50.937 7.8 95 11.2 101880 80
2005-04-28 07:55:53 51°18.57 2°50.936 7.5 98 11.2 101880 80
2005-04-28 07:55:58 51°18.57 2°50.935 7.3 95 11.2 101880 80
2005-04-28 07:56:03 51°18.57 2°50.934 6.7 96 11.2 101880 80
2005-04-28 07:56:08 51°18.57 2°50.933 7 96 11.2 101880 80
2005-04-28 07:56:13 51°18.571 2°50.931 7 98 11.2 101880 80
2005-04-28 07:56:18 51°18.571 2°50.93 7 98 11.2 101880 80
2005-04-28 07:56:22 51°18.571 2°50.929 7.7 94 11.2 101880 80
2005-04-28 07:56:28 51°18.571 2°50.927 8.1 92 11.2 101880 80
2005-04-28 07:56:33 51°18.572 2°50.926 8.1 97 11.2 101890 80
2005-04-28 07:56:38 51°18.572 2°50.925 7.5 94 11.2 101890 80
2005-04-28 07:56:43 51°18.572 2°50.923 8 95 11.2 101880 81
2005-04-28 07:56:48 51°18.572 2°50.921 7.1 94 11.2 101880 81
2005-04-28 07:56:53 51°18.572 2°50.92 7.7 97 11.2 101880 81
2005-04-28 07:56:58 51°18.572 2°50.918 7.3 94 11.2 101880 81
2005-04-28 07:57:03 51°18.573 2°50.917 7.4 93 11.2 101880 80
2005-04-28 07:57:08 51°18.572 2°50.916 7.2 93 11.2 101880 80
2005-04-28 07:57:13 51°18.57 2°50.915 7 96 11.2 101880 80
2005-04-28 07:57:18 51°18.569 2°50.913 7.5 95 11.2 101880 80
2005-04-28 07:57:23 51°18.568 2°50.911 7.2 93 11.2 101880 80
2005-04-28 07:57:28 51°18.569 2°50.91 7.4 99 11.2 101880 80
2005-04-28 07:57:33 51°18.569 2°50.909 7.9 89 11.2 101880 80
2005-04-28 07:57:38 51°18.57 2°50.907 8 99 11.2 101880 80
2005-04-28 07:57:42 51°18.57 2°50.905 7.3 102 11.2 101880 80
2005-04-28 07:57:48 51°18.571 2°50.903 8.1 94 11.2 101880 80
2005-04-28 07:57:53 51°18.572 2°50.901 7.5 92 11.2 101880 80
2005-04-28 07:57:58 51°18.572 2°50.899 7.8 99 11.2 101880 80
2005-04-28 07:58:03 51°18.573 2°50.898 8.1 94 11.2 101880 80
2005-04-28 07:58:08 51°18.574 2°50.896 7.5 103 11.2 101880 80
2005-04-28 07:58:13 51°18.574 2°50.894 6.9 98 11.2 101880 80
2005-04-28 07:58:18 51°18.574 2°50.892 7.2 99 11.2 101880 80
2005-04-28 07:58:22 51°18.574 2°50.891 6.6 95 11.2 101880 80
2005-04-28 07:58:28 51°18.573 2°50.889 7.9 97 11.2 101880 80
2005-04-28 07:58:32 51°18.573 2°50.888 8.1 92 11.2 101880 80
2005-04-28 07:58:38 51°18.574 2°50.889 8 96 11.2 101880 80
2005-04-28 07:58:44 51°18.574 2°50.89 7.4 93 11.2 101880 80
2005-04-28 07:58:48 51°18.575 2°50.893 8.8 88 11.2 101880 80
2005-04-28 07:58:53 51°18.575 2°50.898 8.7 90 11.2 101880 80
2005-04-28 07:58:58 51°18.576 2°50.904 8.3 87 11.2 101880 80
2005-04-28 07:59:03 51°18.577 2°50.913 8.9 91 11.2 101880 80
2005-04-28 07:59:08 51°18.578 2°50.924 8.8 90 11.2 101880 80
2005-04-28 07:59:13 51°18.58 2°50.937 8.3 83 11.2 101880 80
2005-04-28 07:59:18 51°18.582 2°50.951 7.1 78 11.2 101880 80
2005-04-28 07:59:24 51°18.585 2°50.972 7 79 11.2 101880 80
2005-04-28 07:59:28 51°18.589 2°50.989 6.7 77 11.2 101880 80
2005-04-28 07:59:34 51°18.593 2°51.012 7.9 70 11.2 101870 80
2005-04-28 07:59:38 51°18.597 2°51.032 8.6 71 11.2 101870 80
2005-04-28 07:59:43 51°18.602 2°51.054 8.2 72 11.2 101870 80
2005-04-28 07:59:48 51°18.607 2°51.078 8.4 67 11.2 101870 80
2005-04-28 07:59:53 51°18.612 2°51.1 8.7 69 11.2 101870 80
2005-04-28 07:59:58 51°18.617 2°51.125 8.7 62 11.2 101870 80
2005-04-28 08:00:04 51°18.623 2°51.155 8.7 67 11.2 101870 80
2005-04-28 08:00:08 51°18.628 2°51.178 9.7 68 11.2 101870 80
2005-04-28 08:00:13 51°18.633 2°51.201 8.9 66 11.3 101870 80
2005-04-28 08:00:18 51°18.639 2°51.229 9.5 63 11.3 101870 80
2005-04-28 08:00:23 51°18.644 2°51.255 9.1 62 11.2 101870 80
2005-04-28 08:00:28 51°18.65 2°51.281 9.8 66 11.2 101870 80
2005-04-28 08:00:33 51°18.655 2°51.306 9.6 64 11.2 101870 80
2005-04-28 08:00:38 51°18.66 2°51.33 9.5 62 11.2 101870 80
2005-04-28 08:00:43 51°18.666 2°51.359 9.6 66 11.2 101870 80
2005-04-28 08:00:48 51°18.671 2°51.384 9.4 65 11.2 101870 80
2005-04-28 08:00:53 51°18.676 2°51.408 10.1 68 11.2 101870 80
2005-04-28 08:00:58 51°18.681 2°51.434 9.9 63 11.2 101870 80
2005-04-28 08:01:03 51°18.686 2°51.461 10.2 64 11.2 101870 80
2005-04-28 08:01:08 51°18.691 2°51.489 9.8 68 11.2 101870 80
2005-04-28 08:01:12 51°18.695 2°51.51 10.3 63 11.2 101870 80
2005-04-28 08:01:18 51°18.701 2°51.539 10.3 65 11.2 101870 80
2005-04-28 08:01:23 51°18.707 2°51.568 8.9 65 11.2 101870 80
2005-04-28 08:01:28 51°18.713 2°51.594 10 64 11.2 101870 80
2005-04-28 08:01:33 51°18.719 2°51.62 9.5 66 11.2 101870 80
2005-04-28 08:01:38 51°18.724 2°51.643 9.2 66 11.2 101870 80
2005-04-28 08:01:43 51°18.731 2°51.671 10.2 65 11.2 101870 80
2005-04-28 08:01:48 51°18.737 2°51.693 9.1 69 11.2 101870 80
2005-04-28 08:01:52 51°18.742 2°51.717 9.4 66 11.2 101870 80
2005-04-28 08:01:58 51°18.748 2°51.745 8.7 69 11.2 101870 80
2005-04-28 08:02:02 51°18.753 2°51.766 9.3 62 11.2 101870 80
2005-04-28 08:02:08 51°18.76 2°51.799 8.8 71 11.2 101870 80
2005-04-28 08:02:12 51°18.765 2°51.819 8.7 67 11.3 101860 80
2005-04-28 08:02:18 51°18.772 2°51.848 8.8 70 11.3 101860 80
2005-04-28 08:02:22 51°18.777 2°51.871 9.6 65 11.3 101870 80
2005-04-28 08:02:28 51°18.784 2°51.901 9.7 64 11.3 101870 80
2005-04-28 08:02:33 51°18.789 2°51.925 9.5 70 11.3 101870 80
2005-04-28 08:02:38 51°18.795 2°51.951 9.7 66 11.3 101870 80
2005-04-28 08:02:43 51°18.8 2°51.978 9.6 63 11.3 101870 79
2005-04-28 08:02:48 51°18.806 2°52.004 8.9 66 11.3 101870 79
2005-04-28 08:02:52 51°18.811 2°52.025 9.9 65 11.3 101870 79
2005-04-28 08:02:58 51°18.818 2°52.053 9.8 66 11.3 101870 79
2005-04-28 08:03:04 51°18.825 2°52.084 8.7 68 11.3 101870 79
2005-04-28 08:03:08 51°18.83 2°52.107 8.8 73 11.3 101870 79
2005-04-28 08:03:12 51°18.835 2°52.127 9.5 69 11.3 101870 79
2005-04-28 08:03:18 51°18.841 2°52.155 9.2 69 11.3 101870 79
2005-04-28 08:03:23 51°18.847 2°52.184 8.4 74 11.3 101870 79
2005-04-28 08:03:28 51°18.852 2°52.209 9.7 68 11.3 101870 79
2005-04-28 08:03:33 51°18.858 2°52.232 8.7 73 11.3 101870 79
2005-04-28 08:03:38 51°18.864 2°52.261 8.7 68 11.3 101870 79
2005-04-28 08:03:42 51°18.868 2°52.278 9.2 71 11.3 101870 79
2005-04-28 08:03:48 51°18.875 2°52.312 9.4 74 11.3 101870 79
2005-04-28 08:03:53 51°18.88 2°52.337 8.5 67 11.3 101870 79
2005-04-28 08:03:58 51°18.886 2°52.361 9.1 66 11.3 101870 79
2005-04-28 08:04:02 51°18.89 2°52.381 9.5 67 11.3 101870 79
2005-04-28 08:04:08 51°18.898 2°52.415 8.6 71 11.3 101870 79
2005-04-28 08:04:13 51°18.904 2°52.44 8.3 73 11.3 101870 79
2005-04-28 08:04:18 51°18.909 2°52.466 8.5 69 11.3 101870 79
2005-04-28 08:04:23 51°18.914 2°52.489 9.5 63 11.3 101870 79
2005-04-28 08:04:28 51°18.921 2°52.517 8.8 69 11.3 101870 79
2005-04-28 08:04:33 51°18.926 2°52.54 9.2 68 11.4 101870 79
2005-04-28 08:04:38 51°18.932 2°52.566 9.2 71 11.4 101870 79
2005-04-28 08:04:44 51°18.939 2°52.597 9 69 11.4 101870 78
2005-04-28 08:04:48 51°18.944 2°52.62 8.9 71 11.4 101870 78
2005-04-28 08:04:52 51°18.949 2°52.64 8.5 71 11.4 101870 78
2005-04-28 08:04:58 51°18.956 2°52.671 8.8 68 11.4 101870 78
2005-04-28 08:05:03 51°18.962 2°52.696 9.9 66 11.4 101870 78
2005-04-28 08:05:08 51°18.967 2°52.722 9 65 11.4 101870 78
2005-04-28 08:05:13 51°18.972 2°52.745 4.4 68 11.4 101870 78
2005-04-28 08:05:18 51°18.978 2°52.771 9.9 65 11.4 101870 78
2005-04-28 08:05:23 51°18.984 2°52.8 9 68 11.4 101870 78
2005-04-28 08:05:28 51°18.99 2°52.826 9 69 11.4 101870 78
2005-04-28 08:05:33 51°18.996 2°52.851 8.9 65 11.4 101870 78
2005-04-28 08:05:38 51°19.001 2°52.875 8.2 74 11.4 101870 78
2005-04-28 08:05:42 51°19.005 2°52.895 9.3 73 11.4 101870 78
2005-04-28 08:05:48 51°19.013 2°52.929 9.3 72 11.4 101870 78
2005-04-28 08:05:53 51°19.018 2°52.955 8.8 72 11.4 101870 78
2005-04-28 08:05:58 51°19.023 2°52.978 8.6 70 11.4 101870 78
2005-04-28 08:06:03 51°19.029 2°53.007 9.2 66 11.4 101870 78
2005-04-28 08:06:08 51°19.034 2°53.033 8.8 67 11.4 101870 78
2005-04-28 08:06:13 51°19.039 2°53.056 9.2 71 11.4 101870 78
2005-04-28 08:06:18 51°19.045 2°53.082 7.8 70 11.4 101870 78
2005-04-28 08:06:22 51°19.05 2°53.102 8.6 68 11.5 101870 78
2005-04-28 08:06:28 51°19.057 2°53.135 8.3 74 11.5 101870 78
2005-04-28 08:06:33 51°19.063 2°53.16 8.9 69 11.5 101870 78
2005-04-28 08:06:38 51°19.068 2°53.183 8.8 67 11.5 101870 78
2005-04-28 08:06:43 51°19.074 2°53.212 9.4 69 11.5 101870 78
2005-04-28 08:06:48 51°19.079 2°53.237 9.4 66 11.5 101870 78
2005-04-28 08:06:52 51°19.084 2°53.258 9.3 68 11.5 101870 78
2005-04-28 08:06:58 51°19.09 2°53.289 8.6 71 11.5 101870 78
2005-04-28 08:07:04 51°19.097 2°53.317 9.5 67 11.5 101870 77
2005-04-28 08:07:08 51°19.101 2°53.34 9 61 11.5 101870 77
2005-04-28 08:07:12 51°19.105 2°53.361 9 66 11.5 101870 78
2005-04-28 08:07:18 51°19.111 2°53.389 10.1 63 11.5 101870 78
2005-04-28 08:07:23 51°19.117 2°53.417 9.1 67 11.5 101880 77
2005-04-28 08:07:28 51°19.122 2°53.443 9.1 62 11.5 101880 77